Time,TemperatureF,DewpointF,PressureIn,WindDirection,WindDirectionDegrees,WindSpeedMPH,WindSpeedGustMPH,Humidity,HourlyPrecipIn,Conditions,Clouds,dailyrainin,SoftwareType,DateUTC
2013-08-14 00:01:00,60.6,51.6,29.97,North,0,0.0,0.0,72,0.00,,,0.00,WUHU216HW,2013-08-14 04:01:00,
2013-08-14 00:06:00,60.6,51.6,29.97,North,0,0.0,0.0,72,0.00,,,0.00,WUHU216HW,2013-08-14 04:06:00,
2013-08-14 00:11:00,60.4,51.4,29.97,North,0,0.0,0.0,73,0.00,,,0.00,WUHU216HW,2013-08-14 04:11:00,
2013-08-14 00:16:00,60.0,51.4,29.97,North,0,0.0,0.0,73,0.00,,,0.00,WUHU216HW,2013-08-14 04:16:00,
2013-08-14 00:22:00,59.7,51.0,29.97,North,0,0.0,0.0,73,0.00,,,0.00,WUHU216HW,2013-08-14 04:22:00,
2013-08-14 00:27:00,59.7,51.0,29.97,North,0,0.0,0.0,73,0.00,,,0.00,WUHU216HW,2013-08-14 04:27:00,
2013-08-14 00:33:00,59.3,51.0,29.97,North,0,0.0,0.0,74,0.00,,,0.00,WUHU216HW,2013-08-14 04:33:00,
2013-08-14 00:39:00,59.1,51.2,29.97,North,0,0.0,0.0,75,0.00,,,0.00,WUHU216HW,2013-08-14 04:39:00,
2013-08-14 00:45:00,59.0,51.0,29.97,North,0,0.0,0.0,75,0.00,,,0.00,WUHU216HW,2013-08-14 04:45:00,
2013-08-14 00:50:00,58.8,50.9,29.97,North,0,0.0,0.0,75,0.00,,,0.00,WUHU216HW,2013-08-14 04:50:00,
2013-08-14 00:56:00,58.8,50.9,29.97,North,0,0.0,0.0,75,0.00,,,0.00,WUHU216HW,2013-08-14 04:56:00,
2013-08-14 01:01:00,58.8,50.9,29.97,North,0,0.0,0.0,75,0.00,,,0.00,WUHU216HW,2013-08-14 05:01:00,
2013-08-14 01:06:00,58.6,50.7,29.97,North,0,0.0,0.0,75,0.00,,,0.00,WUHU216HW,2013-08-14 05:06:00,
2013-08-14 01:12:00,58.2,50.3,29.97,North,0,0.0,0.0,75,0.00,,,0.00,WUHU216HW,2013-08-14 05:12:00,
2013-08-14 01:17:00,58.1,50.1,29.97,North,0,0.0,0.0,75,0.00,,,0.00,WUHU216HW,2013-08-14 05:17:00,
2013-08-14 01:24:00,57.9,50.3,29.97,North,0,0.0,0.0,76,0.00,,,0.00,WUHU216HW,2013-08-14 05:24:00,
2013-08-14 01:34:00,57.5,50.0,29.97,North,0,0.0,0.0,76,0.00,,,0.00,WUHU216HW,2013-08-14 05:34:00,
2013-08-14 01:39:00,57.2,49.6,29.97,North,0,0.0,0.0,76,0.00,,,0.00,WUHU216HW,2013-08-14 05:39:00,
2013-08-14 01:50:00,56.4,49.2,29.97,North,0,0.0,0.0,77,0.00,,,0.00,WUHU216HW,2013-08-14 05:50:00,
2013-08-14 01:55:00,56.4,49.2,29.97,North,0,0.0,0.0,77,0.00,,,0.00,WUHU216HW,2013-08-14 05:55:00,
2013-08-14 02:00:00,56.3,49.4,29.97,North,0,0.0,0.0,78,0.00,,,0.00,WUHU216HW,2013-08-14 06:00:00,
2013-08-14 02:05:00,55.9,49.1,29.97,North,0,0.0,0.0,78,0.00,,,0.00,WUHU216HW,2013-08-14 06:05:00,
2013-08-14 02:11:00,55.7,48.9,29.97,North,0,0.0,0.0,78,0.00,,,0.00,WUHU216HW,2013-08-14 06:11:00,
2013-08-14 02:16:00,55.5,48.7,29.97,North,0,0.0,0.0,78,0.00,,,0.00,WUHU216HW,2013-08-14 06:16:00,
2013-08-14 02:21:00,55.5,49.1,29.98,North,0,0.0,0.0,79,0.00,,,0.00,WUHU216HW,2013-08-14 06:21:00,
2013-08-14 02:26:00,55.2,48.7,29.97,North,0,0.0,0.0,79,0.00,,,0.00,WUHU216HW,2013-08-14 06:26:00,
2013-08-14 02:32:00,55.2,48.7,29.97,North,0,0.0,0.0,79,0.00,,,0.00,WUHU216HW,2013-08-14 06:32:00,
2013-08-14 02:38:00,55.0,48.5,29.97,North,0,0.0,0.0,79,0.00,,,0.00,WUHU216HW,2013-08-14 06:38:00,
2013-08-14 02:44:00,54.6,48.6,29.96,North,0,0.0,0.0,80,0.00,,,0.00,WUHU216HW,2013-08-14 06:44:00,
2013-08-14 02:49:00,54.6,48.6,29.96,North,0,0.0,0.0,80,0.00,,,0.00,WUHU216HW,2013-08-14 06:49:00,
2013-08-14 02:55:00,54.5,48.7,29.97,North,0,0.0,0.0,81,0.00,,,0.00,WUHU216HW,2013-08-14 06:55:00,
2013-08-14 03:01:00,54.3,48.6,29.97,North,0,0.0,0.0,81,0.00,,,0.00,WUHU216HW,2013-08-14 07:01:00,
2013-08-14 03:07:00,54.3,48.6,29.96,North,0,0.0,0.0,81,0.00,,,0.00,WUHU216HW,2013-08-14 07:07:00,
2013-08-14 03:12:00,54.1,48.4,29.96,North,0,0.0,0.0,81,0.00,,,0.00,WUHU216HW,2013-08-14 07:12:00,
2013-08-14 03:17:00,53.9,48.2,29.97,North,0,0.0,0.0,81,0.00,,,0.00,WUHU216HW,2013-08-14 07:17:00,
2013-08-14 03:22:00,53.7,48.1,29.97,North,0,0.0,0.0,81,0.00,,,0.00,WUHU216HW,2013-08-14 07:22:00,
2013-08-14 03:27:00,53.7,48.4,29.97,North,0,0.0,0.0,82,0.00,,,0.00,WUHU216HW,2013-08-14 07:27:00,
2013-08-14 03:32:00,53.7,48.4,29.97,North,0,0.0,0.0,82,0.00,,,0.00,WUHU216HW,2013-08-14 07:32:00,
2013-08-14 03:37:00,53.4,48.0,29.97,North,0,0.0,0.0,82,0.00,,,0.00,WUHU216HW,2013-08-14 07:37:00,
2013-08-14 03:43:00,53.4,48.0,29.97,North,0,0.0,0.0,82,0.00,,,0.00,WUHU216HW,2013-08-14 07:43:00,
2013-08-14 03:54:00,53.2,47.9,29.97,North,0,0.0,0.0,82,0.00,,,0.00,WUHU216HW,2013-08-14 07:54:00,
2013-08-14 04:00:00,53.0,47.7,29.97,North,0,0.0,0.0,82,0.00,,,0.00,WUHU216HW,2013-08-14 08:00:00,
2013-08-14 04:06:00,52.8,47.8,29.98,North,0,0.0,0.0,83,0.00,,,0.00,WUHU216HW,2013-08-14 08:06:00,
2013-08-14 04:11:00,52.8,47.8,29.98,North,0,0.0,0.0,83,0.00,,,0.00,WUHU216HW,2013-08-14 08:11:00,
2013-08-14 04:17:00,52.7,47.6,29.98,North,0,0.0,0.0,83,0.00,,,0.00,WUHU216HW,2013-08-14 08:17:00,
2013-08-14 04:22:00,52.7,47.6,29.98,North,0,0.0,0.0,83,0.00,,,0.00,WUHU216HW,2013-08-14 08:22:00,
2013-08-14 04:28:00,52.5,47.4,29.98,North,0,0.0,0.0,83,0.00,,,0.00,WUHU216HW,2013-08-14 08:28:00,
2013-08-14 04:33:00,52.5,47.4,29.98,North,0,0.0,0.0,83,0.00,,,0.00,WUHU216HW,2013-08-14 08:33:00,
2013-08-14 04:38:00,52.3,47.3,29.98,North,0,0.0,0.0,83,0.00,,,0.00,WUHU216HW,2013-08-14 08:38:00,
2013-08-14 04:43:00,52.3,47.6,29.97,North,0,0.0,0.0,84,0.00,,,0.00,WUHU216HW,2013-08-14 08:43:00,
2013-08-14 04:48:00,52.3,47.6,29.97,North,0,0.0,0.0,84,0.00,,,0.00,WUHU216HW,2013-08-14 08:48:00,
2013-08-14 04:54:00,52.1,47.4,29.97,North,0,0.0,0.0,84,0.00,,,0.00,WUHU216HW,2013-08-14 08:54:00,
2013-08-14 05:00:00,52.1,47.4,29.98,North,0,0.0,0.0,84,0.00,,,0.00,WUHU216HW,2013-08-14 09:00:00,
2013-08-14 05:05:00,51.9,47.2,29.98,North,0,0.0,0.0,84,0.00,,,0.00,WUHU216HW,2013-08-14 09:05:00,
2013-08-14 05:10:00,51.9,47.2,29.98,North,0,0.0,0.0,84,0.00,,,0.00,WUHU216HW,2013-08-14 09:10:00,
2013-08-14 05:15:00,51.9,47.2,29.98,North,0,0.0,0.0,84,0.00,,,0.00,WUHU216HW,2013-08-14 09:15:00,
2013-08-14 05:20:00,51.8,47.0,29.98,North,0,0.0,0.0,84,0.00,,,0.00,WUHU216HW,2013-08-14 09:20:00,
2013-08-14 05:26:00,51.6,47.2,29.98,North,0,0.0,0.0,85,0.00,,,0.00,WUHU216HW,2013-08-14 09:26:00,
2013-08-14 05:32:00,51.6,47.2,29.98,North,0,0.0,0.0,85,0.00,,,0.00,WUHU216HW,2013-08-14 09:32:00,
2013-08-14 05:37:00,51.6,47.2,29.98,North,0,0.0,0.0,85,0.00,,,0.00,WUHU216HW,2013-08-14 09:37:00,
2013-08-14 05:43:00,51.6,47.2,29.99,North,0,0.0,0.0,85,0.00,,,0.00,WUHU216HW,2013-08-14 09:43:00,
2013-08-14 05:48:00,51.6,47.5,29.99,North,0,0.0,0.0,86,0.00,,,0.00,WUHU216HW,2013-08-14 09:48:00,
2013-08-14 05:54:00,51.6,47.5,29.99,North,0,0.0,0.0,86,0.00,,,0.00,WUHU216HW,2013-08-14 09:54:00,
2013-08-14 05:59:00,51.8,47.6,29.99,North,0,0.0,0.0,86,0.00,,,0.00,WUHU216HW,2013-08-14 09:59:00,
2013-08-14 06:05:00,51.9,47.8,30.00,North,0,0.0,0.0,86,0.00,,,0.00,WUHU216HW,2013-08-14 10:05:00,
2013-08-14 06:10:00,51.9,47.8,29.99,North,0,0.0,0.0,86,0.00,,,0.00,WUHU216HW,2013-08-14 10:10:00,
2013-08-14 06:16:00,51.8,47.6,30.00,North,0,0.0,0.0,86,0.00,,,0.00,WUHU216HW,2013-08-14 10:16:00,
2013-08-14 06:21:00,51.8,47.6,30.00,North,0,0.0,0.0,86,0.00,,,0.00,WUHU216HW,2013-08-14 10:21:00,
2013-08-14 06:26:00,51.6,47.5,30.00,North,0,0.0,0.0,86,0.00,,,0.00,WUHU216HW,2013-08-14 10:26:00,
2013-08-14 06:31:00,51.6,47.5,30.00,North,0,0.0,0.0,86,0.00,,,0.00,WUHU216HW,2013-08-14 10:31:00,
2013-08-14 06:37:00,51.4,47.3,30.00,North,0,0.0,0.0,86,0.00,,,0.00,WUHU216HW,2013-08-14 10:37:00,
2013-08-14 06:43:00,51.4,47.3,30.00,North,0,0.0,0.0,86,0.00,,,0.00,WUHU216HW,2013-08-14 10:43:00,
2013-08-14 06:48:00,51.2,47.1,30.01,North,0,0.0,0.0,86,0.00,,,0.00,WUHU216HW,2013-08-14 10:48:00,
2013-08-14 06:54:00,51.2,47.1,30.01,North,0,0.0,0.0,86,0.00,,,0.00,WUHU216HW,2013-08-14 10:54:00,
2013-08-14 06:59:00,51.4,47.6,30.01,North,0,0.0,0.0,87,0.00,,,0.00,WUHU216HW,2013-08-14 10:59:00,
2013-08-14 07:04:00,51.4,47.6,30.02,North,0,0.0,0.0,87,0.00,,,0.00,WUHU216HW,2013-08-14 11:04:00,
2013-08-14 07:09:00,51.9,48.1,30.01,North,0,0.0,0.0,87,0.00,,,0.00,WUHU216HW,2013-08-14 11:09:00,
2013-08-14 07:14:00,52.3,48.5,30.01,North,0,0.0,0.0,87,0.00,,,0.00,WUHU216HW,2013-08-14 11:14:00,
2013-08-14 07:19:00,52.8,49.3,30.01,North,0,0.0,0.0,88,0.00,,,0.00,WUHU216HW,2013-08-14 11:19:00,
2013-08-14 07:25:00,53.4,49.9,30.01,North,0,0.0,0.0,88,0.00,,,0.00,WUHU216HW,2013-08-14 11:25:00,
2013-08-14 07:30:00,53.9,50.4,30.02,North,0,0.0,0.0,88,0.00,,,0.00,WUHU216HW,2013-08-14 11:30:00,
2013-08-14 07:35:00,54.5,50.9,30.02,North,0,0.0,0.0,88,0.00,,,0.00,WUHU216HW,2013-08-14 11:35:00,
2013-08-14 07:41:00,55.0,51.3,30.02,North,0,0.0,0.0,88,0.00,,,0.00,WUHU216HW,2013-08-14 11:41:00,
2013-08-14 07:46:00,55.2,51.6,30.03,North,0,0.0,0.0,88,0.00,,,0.00,WUHU216HW,2013-08-14 11:46:00,
2013-08-14 07:52:00,55.5,52.0,30.03,North,0,0.0,0.0,88,0.00,,,0.00,WUHU216HW,2013-08-14 11:52:00,
2013-08-14 07:57:00,55.7,51.9,30.03,North,0,0.0,0.0,87,0.00,,,0.00,WUHU216HW,2013-08-14 11:57:00,
2013-08-14 08:02:00,56.1,52.2,30.02,North,0,0.0,0.0,87,0.00,,,0.00,WUHU216HW,2013-08-14 12:02:00,
2013-08-14 08:08:00,56.4,52.6,30.03,North,0,0.0,0.0,87,0.00,,,0.00,WUHU216HW,2013-08-14 12:08:00,
2013-08-14 08:13:00,56.8,52.6,30.03,West,270,0.0,0.0,86,0.00,,,0.00,WUHU216HW,2013-08-14 12:13:00,
2013-08-14 08:18:00,57.0,52.8,30.03,SSW,203,0.0,0.0,86,0.00,,,0.00,WUHU216HW,2013-08-14 12:18:00,
2013-08-14 08:24:00,57.0,52.5,30.03,SW,225,0.0,0.0,85,0.00,,,0.00,WUHU216HW,2013-08-14 12:24:00,
2013-08-14 08:30:00,57.0,52.1,30.03,SW,225,0.0,0.0,84,0.00,,,0.00,WUHU216HW,2013-08-14 12:30:00,
2013-08-14 08:36:00,57.3,52.5,30.03,NNW,338,0.0,0.0,84,0.00,,,0.00,WUHU216HW,2013-08-14 12:36:00,
2013-08-14 08:41:00,57.9,52.7,30.03,NW,315,0.0,0.0,83,0.00,,,0.00,WUHU216HW,2013-08-14 12:41:00,
2013-08-14 08:46:00,58.2,52.7,30.03,WNW,293,0.0,0.0,83,0.00,,,0.00,WUHU216HW,2013-08-14 12:46:00,
2013-08-14 08:52:00,58.8,53.3,30.03,NW,315,0.0,0.0,82,0.00,,,0.00,WUHU216HW,2013-08-14 12:52:00,
2013-08-14 08:57:00,58.8,53.3,30.04,WNW,293,0.0,0.0,82,0.00,,,0.00,WUHU216HW,2013-08-14 12:57:00,
2013-08-14 09:02:00,59.5,53.9,30.04,NW,315,0.0,0.0,81,0.00,,,0.00,WUHU216HW,2013-08-14 13:02:00,
2013-08-14 09:08:00,60.2,54.1,30.04,NNW,338,0.0,0.0,80,0.00,,,0.00,WUHU216HW,2013-08-14 13:08:00,
2013-08-14 09:13:00,61.1,54.6,30.04,NW,315,0.0,0.0,79,0.00,,,0.00,WUHU216HW,2013-08-14 13:13:00,
2013-08-14 09:18:00,61.5,54.2,30.05,North,0,0.0,0.0,77,0.00,,,0.00,WUHU216HW,2013-08-14 13:18:00,
2013-08-14 09:24:00,61.5,53.5,30.05,North,0,0.0,0.0,75,0.00,,,0.00,WUHU216HW,2013-08-14 13:24:00,
2013-08-14 09:29:00,61.3,53.3,30.05,North,0,0.0,0.0,75,0.00,,,0.00,WUHU216HW,2013-08-14 13:29:00,
2013-08-14 09:34:00,61.3,53.3,30.05,NNW,338,0.0,0.0,75,0.00,,,0.00,WUHU216HW,2013-08-14 13:34:00,
2013-08-14 09:39:00,61.3,53.7,30.05,NNE,23,0.0,0.0,76,0.00,,,0.00,WUHU216HW,2013-08-14 13:39:00,
2013-08-14 09:45:00,61.7,53.6,30.05,NW,315,0.0,0.0,75,0.00,,,0.00,WUHU216HW,2013-08-14 13:45:00,
2013-08-14 09:51:00,61.8,53.8,30.05,West,270,0.0,0.0,75,0.00,,,0.00,WUHU216HW,2013-08-14 13:51:00,
2013-08-14 09:57:00,62.2,54.1,30.05,West,270,0.0,0.0,75,0.00,,,0.00,WUHU216HW,2013-08-14 13:57:00,
2013-08-14 10:03:00,62.6,54.5,30.05,NNE,23,0.0,0.0,75,0.00,,,0.00,WUHU216HW,2013-08-14 14:03:00,
2013-08-14 10:08:00,62.9,54.8,30.05,NNE,23,0.0,0.0,75,0.00,,,0.00,WUHU216HW,2013-08-14 14:08:00,
2013-08-14 10:14:00,63.3,54.5,30.05,NNE,23,0.0,0.0,73,0.00,,,0.00,WUHU216HW,2013-08-14 14:14:00,
2013-08-14 10:20:00,63.5,54.6,30.06,NNE,23,0.0,0.0,73,0.00,,,0.00,WUHU216HW,2013-08-14 14:20:00,
2013-08-14 10:26:00,64.0,55.2,30.06,NW,315,0.0,0.0,73,0.00,,,0.00,WUHU216HW,2013-08-14 14:26:00,
2013-08-14 10:31:00,64.2,55.4,30.06,NNE,23,0.0,0.0,73,0.00,,,0.00,WUHU216HW,2013-08-14 14:31:00,
2013-08-14 10:36:00,64.7,55.1,30.06,West,270,0.0,0.0,71,0.00,,,0.00,WUHU216HW,2013-08-14 14:36:00,
2013-08-14 10:41:00,65.1,55.5,30.06,NNW,338,0.0,0.0,71,0.00,,,0.00,WUHU216HW,2013-08-14 14:41:00,
2013-08-14 10:47:00,64.5,54.8,30.07,NW,315,0.0,0.0,70,0.00,,,0.00,WUHU216HW,2013-08-14 14:47:00,
2013-08-14 10:53:00,64.2,54.3,30.07,North,0,0.0,0.0,70,0.00,,,0.00,WUHU216HW,2013-08-14 14:53:00,
2013-08-14 10:58:00,64.9,55.3,30.07,West,270,0.0,0.0,71,0.00,,,0.00,WUHU216HW,2013-08-14 14:58:00,
2013-08-14 11:04:00,65.1,55.5,30.07,North,0,0.0,0.0,71,0.00,,,0.00,WUHU216HW,2013-08-14 15:04:00,
2013-08-14 11:09:00,64.5,54.6,30.07,WNW,293,0.0,0.0,70,0.00,,,0.00,WUHU216HW,2013-08-14 15:09:00,
2013-08-14 11:15:00,64.0,54.5,30.08,SSW,203,0.0,0.0,71,0.00,,,0.00,WUHU216HW,2013-08-14 15:15:00,
2013-08-14 11:21:00,63.8,54.3,30.08,North,0,0.0,0.0,71,0.00,,,0.00,WUHU216HW,2013-08-14 15:21:00,
2013-08-14 11:26:00,64.2,54.6,30.07,NNW,338,0.0,0.0,71,0.00,,,0.00,WUHU216HW,2013-08-14 15:26:00,
2013-08-14 11:32:00,64.5,55.1,30.07,West,270,0.0,0.0,71,0.00,,,0.00,WUHU216HW,2013-08-14 15:32:00,
2013-08-14 11:37:00,64.9,54.9,30.07,NW,315,0.0,0.0,70,0.00,,,0.00,WUHU216HW,2013-08-14 15:37:00,
2013-08-14 11:42:00,64.9,54.9,30.08,South,180,0.0,0.0,70,0.00,,,0.00,WUHU216HW,2013-08-14 15:42:00,
2013-08-14 11:48:00,64.9,54.9,30.08,WSW,248,0.0,0.0,70,0.00,,,0.00,WUHU216HW,2013-08-14 15:48:00,
2013-08-14 11:58:00,64.7,54.3,30.08,NNE,23,0.0,0.0,69,0.00,,,0.00,WUHU216HW,2013-08-14 15:58:00,
2013-08-14 12:05:00,64.7,54.3,30.08,NNE,23,0.0,0.0,69,0.00,,,0.00,WUHU216HW,2013-08-14 16:05:00,
2013-08-14 12:10:00,65.1,54.7,30.08,NNE,23,0.0,0.0,69,0.00,,,0.00,WUHU216HW,2013-08-14 16:10:00,
2013-08-14 12:16:00,65.6,55.6,30.08,NNE,23,0.0,0.0,70,0.00,,,0.00,WUHU216HW,2013-08-14 16:16:00,
2013-08-14 12:27:00,66.7,56.6,30.07,NNW,338,0.0,0.0,70,0.00,,,0.00,WUHU216HW,2013-08-14 16:27:00,
2013-08-14 12:32:00,66.7,56.2,30.07,NNW,338,0.0,0.0,69,0.00,,,0.00,WUHU216HW,2013-08-14 16:32:00,
2013-08-14 12:37:00,66.7,55.8,30.07,NNW,338,0.0,0.0,68,0.00,,,0.00,WUHU216HW,2013-08-14 16:37:00,
2013-08-14 12:42:00,66.5,55.6,30.08,NNW,338,0.0,0.0,68,0.00,,,0.00,WUHU216HW,2013-08-14 16:42:00,
2013-08-14 12:47:00,66.2,55.1,30.08,NNW,338,0.0,0.0,67,0.00,,,0.00,WUHU216HW,2013-08-14 16:47:00,
2013-08-14 12:52:00,66.0,55.1,30.08,NNW,338,0.0,0.0,68,0.00,,,0.00,WUHU216HW,2013-08-14 16:52:00,
2013-08-14 12:58:00,65.4,54.6,30.08,North,0,0.0,0.0,68,0.00,,,0.00,WUHU216HW,2013-08-14 16:58:00,
2013-08-14 13:03:00,65.4,54.6,30.08,North,0,0.0,0.0,68,0.00,,,0.00,WUHU216HW,2013-08-14 17:03:00,
2013-08-14 13:14:00,65.8,54.9,30.08,North,0,0.0,0.0,68,0.00,,,0.00,WUHU216HW,2013-08-14 17:14:00,
2013-08-14 13:20:00,65.4,54.6,30.08,North,0,0.0,0.0,68,0.00,,,0.00,WUHU216HW,2013-08-14 17:20:00,
2013-08-14 13:25:00,65.3,54.8,30.08,North,0,0.0,0.0,69,0.00,,,0.00,WUHU216HW,2013-08-14 17:25:00,
2013-08-14 13:31:00,65.1,54.7,30.08,North,0,0.0,0.0,69,0.00,,,0.00,WUHU216HW,2013-08-14 17:31:00,
2013-08-14 13:42:00,64.9,54.9,30.08,NNW,338,0.0,0.0,70,0.00,,,0.00,WUHU216HW,2013-08-14 17:42:00,
2013-08-14 13:48:00,65.8,56.1,30.08,SW,225,0.0,0.0,71,0.00,,,0.00,WUHU216HW,2013-08-14 17:48:00,
2013-08-14 13:54:00,67.1,56.5,30.08,NNW,338,0.0,0.0,69,0.00,,,0.00,WUHU216HW,2013-08-14 17:54:00,
2013-08-14 14:00:00,68.1,57.2,30.08,NNW,338,0.0,0.0,68,0.00,,,0.00,WUHU216HW,2013-08-14 18:00:00,
2013-08-14 14:11:00,69.0,57.6,30.08,West,270,0.0,0.0,67,0.00,,,0.00,WUHU216HW,2013-08-14 18:11:00,
2013-08-14 14:17:00,69.8,57.8,30.07,NW,315,0.0,0.0,66,0.00,,,0.00,WUHU216HW,2013-08-14 18:17:00,
2013-08-14 14:34:00,70.5,58.1,30.07,WNW,293,0.0,0.0,65,0.00,,,0.00,WUHU216HW,2013-08-14 18:34:00,
2013-08-14 14:40:00,70.3,57.9,30.07,WNW,293,0.0,0.0,65,0.00,,,0.00,WUHU216HW,2013-08-14 18:40:00,
2013-08-14 14:45:00,69.8,57.0,30.07,NNW,338,0.0,0.0,64,0.00,,,0.00,WUHU216HW,2013-08-14 18:45:00,
2013-08-14 14:51:00,69.0,56.0,30.07,North,0,0.0,0.0,64,0.00,,,0.00,WUHU216HW,2013-08-14 18:51:00,
2013-08-14 15:01:00,67.8,55.1,30.07,West,270,0.0,0.0,64,0.00,,,0.00,WUHU216HW,2013-08-14 19:01:00,
2013-08-14 15:12:00,67.2,55.4,30.07,SW,225,0.0,0.0,66,0.00,,,0.00,WUHU216HW,2013-08-14 19:12:00,
2013-08-14 15:22:00,68.0,56.1,30.07,North,0,0.0,0.0,66,0.00,,,0.00,WUHU216HW,2013-08-14 19:22:00,
2013-08-14 15:28:00,68.7,56.8,30.06,WSW,248,0.0,0.0,66,0.00,,,0.00,WUHU216HW,2013-08-14 19:28:00,
2013-08-14 15:34:00,69.6,56.9,30.07,NNE,23,0.0,0.0,65,0.00,,,0.00,WUHU216HW,2013-08-14 19:34:00,
2013-08-14 15:40:00,69.9,57.6,30.06,WSW,248,0.0,0.0,65,0.00,,,0.00,WUHU216HW,2013-08-14 19:40:00,
2013-08-14 15:45:00,70.1,57.3,30.07,NNE,23,0.0,0.0,64,0.00,,,0.00,WUHU216HW,2013-08-14 19:45:00,
2013-08-14 15:51:00,69.9,57.3,30.07,NNE,23,0.0,0.0,63,0.00,,,0.00,WUHU216HW,2013-08-14 19:51:00,
2013-08-14 16:02:00,68.9,56.1,30.07,NNE,23,0.0,0.0,64,0.00,,,0.00,WUHU216HW,2013-08-14 20:02:00,
2013-08-14 16:13:00,68.5,56.2,30.07,NNE,23,0.0,0.0,65,0.00,,,0.00,WUHU216HW,2013-08-14 20:13:00,
2013-08-14 16:18:00,68.5,56.2,30.07,NNE,23,0.0,0.0,65,0.00,,,0.00,WUHU216HW,2013-08-14 20:18:00,
2013-08-14 16:24:00,69.0,56.7,30.07,NNE,23,0.0,0.0,65,0.00,,,0.00,WUHU216HW,2013-08-14 20:24:00,
2013-08-14 16:34:00,70.5,58.5,30.07,NNE,23,0.0,0.0,66,0.00,,,0.00,WUHU216HW,2013-08-14 20:34:00,
2013-08-14 16:40:00,70.8,59.3,30.07,NNE,23,0.0,0.0,67,0.00,,,0.00,WUHU216HW,2013-08-14 20:40:00,
2013-08-14 16:45:00,71.2,59.6,30.07,NNE,23,0.0,0.0,67,0.00,,,0.00,WUHU216HW,2013-08-14 20:45:00,
2013-08-14 16:50:00,71.4,59.0,30.07,NNE,23,0.0,0.0,65,0.00,,,0.00,WUHU216HW,2013-08-14 20:50:00,
2013-08-14 16:55:00,71.2,59.2,30.08,NNE,23,0.0,0.0,66,0.00,,,0.00,WUHU216HW,2013-08-14 20:55:00,
2013-08-14 17:00:00,70.8,58.4,30.07,West,270,0.0,0.0,65,0.00,,,0.00,WUHU216HW,2013-08-14 21:00:00,
2013-08-14 17:05:00,70.7,58.3,30.07,West,270,0.0,0.0,65,0.00,,,0.00,WUHU216HW,2013-08-14 21:05:00,
2013-08-14 17:10:00,70.7,58.3,30.08,West,270,0.0,0.0,65,0.00,,,0.00,WUHU216HW,2013-08-14 21:10:00,
2013-08-14 17:16:00,70.7,58.3,30.07,WSW,248,0.0,0.0,65,0.00,,,0.00,WUHU216HW,2013-08-14 21:16:00,
2013-08-14 17:21:00,71.2,58.8,30.07,WSW,248,0.0,0.0,65,0.00,,,0.00,WUHU216HW,2013-08-14 21:21:00,
2013-08-14 17:27:00,71.7,59.3,30.07,WSW,248,0.0,0.0,65,0.00,,,0.00,WUHU216HW,2013-08-14 21:27:00,
2013-08-14 17:32:00,72.5,59.5,30.07,WSW,248,0.0,0.0,64,0.00,,,0.00,WUHU216HW,2013-08-14 21:32:00,
2013-08-14 17:37:00,73.2,60.2,30.07,WSW,248,0.0,0.0,64,0.00,,,0.00,WUHU216HW,2013-08-14 21:37:00,
2013-08-14 17:43:00,73.9,60.0,30.08,WSW,248,0.0,0.0,62,0.00,,,0.00,WUHU216HW,2013-08-14 21:43:00,
2013-08-14 17:48:00,74.4,60.1,30.07,WSW,248,0.0,0.0,61,0.00,,,0.00,WUHU216HW,2013-08-14 21:48:00,
2013-08-14 17:54:00,75.0,60.6,30.07,WSW,248,0.0,0.0,61,0.00,,,0.00,WUHU216HW,2013-08-14 21:54:00,
2013-08-14 18:05:00,75.7,60.4,30.07,WSW,248,0.0,0.0,59,0.00,,,0.00,WUHU216HW,2013-08-14 22:05:00,
2013-08-14 18:10:00,75.5,59.7,30.07,NW,315,0.0,0.0,58,0.00,,,0.00,WUHU216HW,2013-08-14 22:10:00,
2013-08-14 18:16:00,75.2,59.4,30.07,NW,315,0.0,0.0,58,0.00,,,0.00,WUHU216HW,2013-08-14 22:16:00,
2013-08-14 18:22:00,74.3,58.0,30.07,North,0,0.0,2.4,57,0.00,,,0.00,WUHU216HW,2013-08-14 22:22:00,
2013-08-14 18:33:00,72.5,56.8,30.07,North,0,0.0,0.0,58,0.00,,,0.00,WUHU216HW,2013-08-14 22:33:00,
2013-08-14 18:38:00,71.9,56.8,30.07,North,0,0.0,0.0,59,0.00,,,0.00,WUHU216HW,2013-08-14 22:38:00,
2013-08-14 18:43:00,71.7,57.1,30.07,North,0,0.0,0.0,60,0.00,,,0.00,WUHU216HW,2013-08-14 22:43:00,
2013-08-14 18:49:00,71.7,57.1,30.07,North,0,0.0,0.0,60,0.00,,,0.00,WUHU216HW,2013-08-14 22:49:00,
2013-08-14 18:54:00,71.9,57.7,30.06,NNW,338,0.0,0.0,61,0.00,,,0.00,WUHU216HW,2013-08-14 22:54:00,
2013-08-14 19:00:00,72.3,58.5,30.06,NNW,338,0.0,0.0,62,0.00,,,0.00,WUHU216HW,2013-08-14 23:00:00,
2013-08-14 19:05:00,72.3,58.9,30.06,SSW,203,0.0,0.0,63,0.00,,,0.00,WUHU216HW,2013-08-14 23:05:00,
2013-08-14 19:10:00,72.1,58.3,30.07,WSW,248,0.0,0.0,62,0.00,,,0.00,WUHU216HW,2013-08-14 23:10:00,
2013-08-14 19:15:00,71.4,58.1,30.07,WSW,248,0.0,0.0,63,0.00,,,0.00,WUHU216HW,2013-08-14 23:15:00,
2013-08-14 19:20:00,70.8,58.0,30.07,WSW,248,0.0,0.0,64,0.00,,,0.00,WUHU216HW,2013-08-14 23:20:00,
2013-08-14 19:26:00,69.9,57.2,30.07,WSW,248,0.0,0.0,64,0.00,,,0.00,WUHU216HW,2013-08-14 23:26:00,
2013-08-14 19:32:00,69.0,56.7,30.07,WSW,248,0.0,0.0,65,0.00,,,0.00,WUHU216HW,2013-08-14 23:32:00,
2013-08-14 19:37:00,68.5,56.2,30.07,WSW,248,0.0,0.0,65,0.00,,,0.00,WUHU216HW,2013-08-14 23:37:00,
2013-08-14 19:43:00,67.8,56.0,30.07,WSW,248,0.0,0.0,66,0.00,,,0.00,WUHU216HW,2013-08-14 23:43:00,
2013-08-14 19:49:00,67.1,56.1,30.08,WSW,248,0.0,0.0,68,0.00,,,0.00,WUHU216HW,2013-08-14 23:49:00,
2013-08-14 19:54:00,66.5,55.6,30.08,WSW,248,0.0,0.0,68,0.00,,,0.00,WUHU216HW,2013-08-14 23:54:00,
2013-08-14 20:00:00,66.0,55.1,30.08,SW,225,0.0,0.0,68,0.00,,,0.00,WUHU216HW,2013-08-15 00:00:00,
2013-08-14 20:06:00,65.3,54.8,30.08,SW,225,0.0,0.0,69,0.00,,,0.00,WUHU216HW,2013-08-15 00:06:00,
2013-08-14 20:11:00,64.7,54.8,30.08,SW,225,0.0,0.0,70,0.00,,,0.00,WUHU216HW,2013-08-15 00:11:00,
2013-08-14 20:22:00,63.8,54.3,30.08,SW,225,0.0,0.0,71,0.00,,,0.00,WUHU216HW,2013-08-15 00:22:00,
2013-08-14 20:27:00,63.5,53.9,30.08,SW,225,0.0,0.0,71,0.00,,,0.00,WUHU216HW,2013-08-15 00:27:00,
2013-08-14 20:33:00,63.1,53.9,30.08,SW,225,0.0,0.0,72,0.00,,,0.00,WUHU216HW,2013-08-15 00:33:00,
2013-08-14 20:38:00,62.7,53.6,30.09,SW,225,0.0,0.0,72,0.00,,,0.00,WUHU216HW,2013-08-15 00:38:00,
2013-08-14 20:43:00,62.4,53.6,30.08,SW,225,0.0,0.0,73,0.00,,,0.00,WUHU216HW,2013-08-15 00:43:00,
2013-08-14 20:49:00,62.0,53.2,30.09,SW,225,0.0,0.0,73,0.00,,,0.00,WUHU216HW,2013-08-15 00:49:00,
2013-08-14 20:55:00,61.7,53.3,30.09,SW,225,0.0,0.0,74,0.00,,,0.00,WUHU216HW,2013-08-15 00:55:00,
2013-08-14 21:01:00,61.5,53.1,30.09,SW,225,0.0,0.0,74,0.00,,,0.00,WUHU216HW,2013-08-15 01:01:00,
2013-08-14 21:06:00,61.1,53.2,30.09,SW,225,0.0,0.0,75,0.00,,,0.00,WUHU216HW,2013-08-15 01:06:00,
2013-08-14 21:12:00,60.9,53.0,30.10,SW,225,0.0,0.0,75,0.00,,,0.00,WUHU216HW,2013-08-15 01:12:00,
2013-08-14 21:18:00,60.6,53.0,30.10,SW,225,0.0,0.0,76,0.00,,,0.00,WUHU216HW,2013-08-15 01:18:00,
2013-08-14 21:24:00,60.4,52.8,30.09,SW,225,0.0,0.0,76,0.00,,,0.00,WUHU216HW,2013-08-15 01:24:00,
2013-08-14 21:30:00,60.0,52.5,30.09,SW,225,0.0,0.0,76,0.00,,,0.00,WUHU216HW,2013-08-15 01:30:00,
2013-08-14 21:36:00,59.9,52.3,30.10,SW,225,0.0,0.0,76,0.00,,,0.00,WUHU216HW,2013-08-15 01:36:00,
2013-08-14 21:42:00,59.5,52.3,30.10,SW,225,0.0,0.0,77,0.00,,,0.00,WUHU216HW,2013-08-15 01:42:00,
2013-08-14 21:48:00,59.3,52.1,30.10,SW,225,0.0,0.0,77,0.00,,,0.00,WUHU216HW,2013-08-15 01:48:00,
2013-08-14 21:54:00,59.0,51.8,30.10,SW,225,0.0,0.0,77,0.00,,,0.00,WUHU216HW,2013-08-15 01:54:00,
2013-08-14 21:59:00,58.8,51.9,30.11,SW,225,0.0,0.0,78,0.00,,,0.00,WUHU216HW,2013-08-15 01:59:00,
2013-08-14 22:05:00,58.8,51.9,30.11,SW,225,0.0,0.0,78,0.00,,,0.00,WUHU216HW,2013-08-15 02:05:00,
2013-08-14 22:10:00,58.8,52.3,30.11,SW,225,0.0,0.0,79,0.00,,,0.00,WUHU216HW,2013-08-15 02:10:00,
2013-08-14 22:21:00,58.2,51.8,30.11,SW,225,0.0,0.0,79,0.00,,,0.00,WUHU216HW,2013-08-15 02:21:00,
2013-08-14 22:26:00,58.1,51.6,30.11,SW,225,0.0,0.0,79,0.00,,,0.00,WUHU216HW,2013-08-15 02:26:00,
2013-08-14 22:32:00,57.9,51.4,30.11,SW,225,0.0,0.0,79,0.00,,,0.00,WUHU216HW,2013-08-15 02:32:00,
2013-08-14 22:38:00,57.7,51.6,30.11,SW,225,0.0,0.0,80,0.00,,,0.00,WUHU216HW,2013-08-15 02:38:00,
2013-08-14 22:44:00,57.5,51.4,30.11,SW,225,0.0,0.0,80,0.00,,,0.00,WUHU216HW,2013-08-15 02:44:00,
2013-08-14 22:50:00,57.3,51.2,30.11,SW,225,0.0,0.0,80,0.00,,,0.00,WUHU216HW,2013-08-15 02:50:00,
2013-08-14 22:55:00,57.2,51.0,30.12,SW,225,0.0,0.0,80,0.00,,,0.00,WUHU216HW,2013-08-15 02:55:00,
2013-08-14 23:01:00,57.0,51.2,30.11,SW,225,0.0,0.0,81,0.00,,,0.00,WUHU216HW,2013-08-15 03:01:00,
2013-08-14 23:07:00,56.8,51.0,30.11,SW,225,0.0,0.0,81,0.00,,,0.00,WUHU216HW,2013-08-15 03:07:00,
2013-08-14 23:13:00,56.6,50.8,30.12,SW,225,0.0,0.0,81,0.00,,,0.00,WUHU216HW,2013-08-15 03:13:00,
2013-08-14 23:18:00,56.4,50.6,30.12,SW,225,0.0,0.0,81,0.00,,,0.00,WUHU216HW,2013-08-15 03:18:00,
2013-08-14 23:23:00,56.4,51.0,30.12,SW,225,0.0,0.0,82,0.00,,,0.00,WUHU216HW,2013-08-15 03:23:00,
2013-08-14 23:28:00,56.3,50.8,30.12,SW,225,0.0,0.0,82,0.00,,,0.00,WUHU216HW,2013-08-15 03:28:00,
2013-08-14 23:33:00,56.1,50.6,30.12,SW,225,0.0,0.0,82,0.00,,,0.00,WUHU216HW,2013-08-15 03:33:00,
2013-08-14 23:38:00,56.1,50.6,30.12,SW,225,0.0,0.0,82,0.00,,,0.00,WUHU216HW,2013-08-15 03:38:00,
2013-08-14 23:44:00,55.9,50.4,30.12,SW,225,0.0,0.0,82,0.00,,,0.00,WUHU216HW,2013-08-15 03:44:00,
2013-08-14 23:50:00,55.7,50.2,30.13,SW,225,0.0,0.0,82,0.00,,,0.00,WUHU216HW,2013-08-15 03:50:00,
2013-08-14 23:55:00,55.5,50.1,30.13,SW,225,0.0,0.0,82,0.00,,,0.00,WUHU216HW,2013-08-15 03:55:00,